Time;durP1;ratioP1;P1;durP2;ratioP2;P2;SDS_P1;SDS_P2;PMS_P1;PMS_P2;Temp;Humidity;BMP_temperature;BMP_pressure;BME280_temperature;BME280_humidity;BME280_pressure;Samples;Min_cycle;Max_cycle;Signal;HPM_P1;HPM_P2
2023/09/28 00:01:12;;;;;;;;;30.00;27.00;;;;;20.07;100.00;99321.00;6239386;28;96777;-63
2023/09/28 00:04:19;;;;;;;;;30.00;27.60;;;;;20.02;100.00;99317.44;6238378;28;96614;-63
2023/09/28 00:07:22;;;;;;;;;28.00;26.00;;;;;19.98;100.00;99314.44;6239920;28;96310;-62
2023/09/28 00:10:25;;;;;;;;;29.75;27.00;;;;;19.90;100.00;99315.78;6239120;28;96788;-63
2023/09/28 00:13:29;;;;;;;;;26.75;24.75;;;;;19.84;100.00;99316.88;6238994;28;96382;-64
2023/09/28 00:16:33;;;;;;;;;26.60;26.00;;;;;19.78;100.00;99311.66;6252450;27;96494;-64
2023/09/28 00:19:36;;;;;;;;;30.00;25.80;;;;;19.72;100.00;99308.09;6252281;27;96292;-63
2023/09/28 00:22:39;;;;;;;;;26.00;24.00;;;;;19.58;100.00;99301.50;6254740;27;96582;-63
2023/09/28 00:25:42;;;;;;;;;29.20;26.60;;;;;19.68;100.00;99314.38;6220563;27;96947;-62
2023/09/28 00:28:44;;;;;;;;;26.40;25.60;;;;;19.64;100.00;99316.84;6218421;28;96840;-63
2023/09/28 00:31:49;;;;;;;;;27.40;26.00;;;;;19.63;100.00;99307.00;6227939;28;96835;-62
2023/09/28 00:34:54;;;;;;;;;29.40;25.60;;;;;19.60;100.00;99301.22;6254316;27;96351;-63
2023/09/28 00:37:57;;;;;;;;;28.40;25.00;;;;;19.61;100.00;99306.44;6238618;28;96973;-63
2023/09/28 00:41:00;;;;;;;;;29.25;25.25;;;;;19.62;100.00;99299.88;6238700;28;96902;-63
2023/09/28 00:44:04;;;;;;;;;29.00;26.20;;;;;19.59;100.00;99305.06;6239887;28;96270;-62
2023/09/28 00:47:10;;;;;;;;;30.00;24.80;;;;;19.42;100.00;99308.00;6237740;28;96888;-63
2023/09/28 00:50:16;;;;;;;;;25.00;24.00;;;;;19.20;100.00;99310.13;6218958;28;98567;-63
2023/09/28 00:53:20;;;;;;;;;25.00;23.60;;;;;19.06;100.00;99307.03;6203150;27;96805;-63
2023/09/28 00:56:24;;;;;;;;;23.00;21.60;;;;;18.99;100.00;99306.47;6238065;28;96420;-62
2023/09/28 00:59:28;;;;;;;;;29.00;24.40;;;;;18.95;100.00;99310.81;6218942;28;96715;-63
2023/09/28 01:02:31;;;;;;;;;24.60;24.00;;;;;18.90;100.00;99305.34;6237853;28;96536;-63
2023/09/28 01:05:39;;;;;;;;;23.60;22.00;;;;;18.81;100.00;99313.22;6236762;27;96469;-64
2023/09/28 01:08:41;;;;;;;;;23.80;21.20;;;;;18.80;100.00;99319.75;6208725;28;98363;-63
2023/09/28 01:11:46;;;;;;;;;27.20;25.00;;;;;18.80;100.00;99310.75;6238485;28;96648;-64
2023/09/28 01:14:50;;;;;;;;;29.00;26.50;;;;;18.77;100.00;99309.34;6240573;27;96391;-63
2023/09/28 01:17:54;;;;;;;;;28.20;26.60;;;;;18.77;100.00;99313.97;6238723;28;96398;-63
2023/09/28 01:20:58;;;;;;;;;29.75;27.75;;;;;18.75;100.00;99313.44;6219196;28;96454;-63
2023/09/28 01:24:02;;;;;;;;;28.50;25.50;;;;;18.72;100.00;99312.03;6238248;28;96323;-63
2023/09/28 01:27:06;;;;;;;;;30.00;26.75;;;;;18.66;100.00;99315.84;6220920;28;96304;-63
2023/09/28 01:30:11;;;;;;;;;31.00;29.60;;;;;18.64;100.00;99318.00;6239104;28;96452;-63
2023/09/28 01:33:13;;;;;;;;;32.00;28.00;;;;;18.61;100.00;99304.91;6238425;28;96280;-63
2023/09/28 01:36:17;;;;;;;;;25.00;23.75;;;;;18.60;100.00;99316.91;6218997;28;96807;-63
2023/09/28 01:39:20;;;;;;;;;29.80;27.60;;;;;18.63;100.00;99315.53;6219200;28;96685;-63
2023/09/28 01:42:23;;;;;;;;;32.00;27.00;;;;;18.60;100.00;99315.00;6237443;28;96401;-63
2023/09/28 01:45:26;;;;;;;;;30.40;27.40;;;;;18.53;100.00;99311.66;6219943;28;96336;-62
2023/09/28 01:48:29;;;;;;;;;36.00;31.00;;;;;18.49;100.00;99313.25;6236731;28;96333;-62
2023/09/28 01:51:32;;;;;;;;;33.33;30.67;;;;;18.50;100.00;99322.25;6219552;28;98039;-62
2023/09/28 01:54:36;;;;;;;;;38.00;32.00;;;;;18.49;100.00;99313.25;6219396;28;96308;-62
2023/09/28 01:57:39;;;;;;;;;38.40;33.00;;;;;18.49;100.00;99323.34;6219804;28;96464;-63
2023/09/28 02:00:45;;;;;;;;;35.60;31.00;;;;;18.46;100.00;99316.50;6219291;28;96490;-64
2023/09/28 02:03:48;;;;;;;;;35.20;30.80;;;;;18.42;100.00;99307.19;6237710;28;97387;-63
2023/09/28 02:06:53;;;;;;;;;34.00;30.00;;;;;18.37;100.00;99309.91;6219615;28;96323;-63
2023/09/28 02:09:58;;;;;;;;;38.60;31.60;;;;;18.34;100.00;99313.13;6219081;28;99022;-62
2023/09/28 02:13:01;;;;;;;;;36.00;30.40;;;;;18.32;100.00;99304.41;6219227;28;98766;-63
2023/09/28 02:16:08;;;;;;;;;36.00;31.00;;;;;18.27;100.00;99312.56;6217146;28;98620;-63
2023/09/28 02:19:13;;;;;;;;;37.80;31.80;;;;;18.25;100.00;99303.78;6200638;28;97350;-64
2023/09/28 02:22:15;;;;;;;;;33.80;29.40;;;;;18.25;100.00;99308.44;6218627;28;97453;-63
2023/09/28 02:25:23;;;;;;;;;32.40;29.00;;;;;18.18;100.00;99309.47;6236780;28;96331;-63
2023/09/28 02:28:26;;;;;;;;;30.00;28.00;;;;;18.12;100.00;99306.97;6237453;28;96331;-64
2023/09/28 02:31:28;;;;;;;;;31.00;29.00;;;;;18.04;100.00;99318.34;6237420;28;96342;-63
2023/09/28 02:34:34;;;;;;;;;29.00;28.00;;;;;18.01;100.00;99314.25;6236875;28;96430;-63
2023/09/28 02:37:36;;;;;;;;;31.25;29.00;;;;;18.00;100.00;99315.31;6237475;28;96285;-63
2023/09/28 02:40:40;;;;;;;;;29.67;26.67;;;;;18.00;100.00;99315.31;6238114;28;96716;-63
2023/09/28 02:43:44;;;;;;;;;28.20;27.20;;;;;17.99;100.00;99316.41;6236906;28;96567;-64
2023/09/28 02:46:46;;;;;;;;;31.40;27.40;;;;;17.99;100.00;99319.13;6217967;28;97115;-63
2023/09/28 02:49:50;;;;;;;;;30.80;27.80;;;;;18.02;100.00;99315.91;6235560;28;97889;-64
2023/09/28 02:52:52;;;;;;;;;34.00;30.00;;;;;18.00;100.00;99318.03;6249854;27;96676;-63
2023/09/28 02:55:59;;;;;;;;;29.00;27.00;;;;;17.93;100.00;99311.16;6236739;28;96963;-63
2023/09/28 02:59:02;;;;;;;;;29.75;27.75;;;;;17.92;100.00;99313.06;6218448;28;96357;-63
2023/09/28 03:02:09;;;;;;;;;34.40;30.40;;;;;17.90;100.00;99314.41;6207304;28;96286;-63
2023/09/28 03:05:16;;;;;;;;;31.60;27.60;;;;;17.91;100.00;99318.78;6218590;27;97324;-63
2023/09/28 03:08:19;;;;;;;;;26.00;24.00;;;;;17.92;100.00;99317.69;6218692;27;96718;-63
2023/09/28 03:11:24;;;;;;;;;32.00;27.00;;;;;17.96;100.00;99324.28;6237738;27;96804;-64
2023/09/28 03:14:27;;;;;;;;;29.00;26.00;;;;;17.96;100.00;99322.38;6239618;27;96300;-63
2023/09/28 03:17:30;;;;;;;;;30.50;26.75;;;;;17.97;100.00;99317.75;6217093;28;96357;-63
2023/09/28 03:20:37;;;;;;;;;32.00;29.67;;;;;18.00;100.00;99314.50;6223458;27;96704;-63
2023/09/28 03:23:40;;;;;;;;;30.20;28.60;;;;;18.00;100.00;99317.22;6245842;27;96923;-63
2023/09/28 03:26:45;;;;;;;;;27.80;26.20;;;;;17.99;100.00;99319.13;6233494;27;96519;-63
2023/09/28 03:30:05;;;;;;;;;28.00;25.40;;;;;17.97;100.00;99310.38;6236838;27;96905;-63
2023/09/28 03:33:08;;;;;;;;;30.40;28.00;;;;;17.95;100.00;99320.72;6234196;28;96955;-63
2023/09/28 03:36:12;;;;;;;;;30.00;27.00;;;;;17.89;100.00;99321.75;6239879;28;96724;-63
2023/09/28 03:39:16;;;;;;;;;32.20;30.00;;;;;17.88;100.00;99320.13;6240616;28;96337;-64
2023/09/28 03:42:20;;;;;;;;;27.50;26.00;;;;;17.87;100.00;99329.38;6239231;28;96440;-63
2023/09/28 03:45:23;;;;;;;;;28.00;26.00;;;;;17.85;100.00;99331.53;6201252;28;98557;-63
2023/09/28 03:48:26;;;;;;;;;27.60;24.20;;;;;17.85;100.00;99319.81;6238167;28;96993;-64
2023/09/28 03:51:30;;;;;;;;;29.60;26.80;;;;;17.84;100.00;99313.53;6238211;28;96572;-63
2023/09/28 03:54:33;;;;;;;;;31.80;29.80;;;;;17.85;100.00;99319.81;6236786;27;96439;-64
2023/09/28 03:57:37;;;;;;;;;29.50;26.25;;;;;17.82;100.00;99315.69;6238026;27;96775;-63
2023/09/28 04:00:41;;;;;;;;;31.60;28.40;;;;;17.81;100.00;99308.59;6235617;28;96563;-64
2023/09/28 04:03:44;;;;;;;;;36.00;32.00;;;;;17.81;100.00;99305.03;6231484;28;96373;-63
2023/09/28 04:06:48;;;;;;;;;30.00;27.20;;;;;17.74;100.00;99307.97;6232704;27;97028;-63
2023/09/28 04:09:51;;;;;;;;;38.50;33.00;;;;;17.73;100.00;99307.19;6254883;27;96483;-63
2023/09/28 04:12:56;;;;;;;;;31.75;30.00;;;;;17.73;100.00;99303.63;6220131;28;96278;-63
2023/09/28 04:15:59;;;;;;;;;30.60;28.00;;;;;17.71;100.00;99308.50;6218462;27;98509;-63
2023/09/28 04:19:03;;;;;;;;;33.40;30.00;;;;;17.69;100.00;99300.56;6235107;28;96429;-63
2023/09/28 04:22:06;;;;;;;;;32.40;30.00;;;;;17.70;100.00;99315.03;6238558;27;96353;-63
2023/09/28 04:25:11;;;;;;;;;30.75;29.00;;;;;17.70;100.00;99313.13;6239148;27;96610;-63
2023/09/28 04:28:15;;;;;;;;;40.50;33.00;;;;;17.69;100.00;99311.47;6236104;28;96381;-63
2023/09/28 04:31:19;;;;;;;;;36.00;32.00;;;;;17.64;100.00;99316.88;6238031;28;96335;-63
2023/09/28 04:34:23;;;;;;;;;41.80;35.00;;;;;17.59;100.00;99313.28;6254400;27;96247;-64
2023/09/28 04:37:26;;;;;;;;;44.00;33.40;;;;;17.53;100.00;99309.66;6237881;28;96965;-63
2023/09/28 04:40:29;;;;;;;;;36.40;31.40;;;;;17.54;100.00;99316.75;6238726;27;96387;-63
2023/09/28 04:43:34;;;;;;;;;38.00;32.20;;;;;17.57;100.00;99320.88;6238190;28;96270;-63
2023/09/28 04:46:37;;;;;;;;;39.50;32.00;;;;;17.58;100.00;99317.88;6232826;28;96350;-63
2023/09/28 04:49:41;;;;;;;;;32.00;29.00;;;;;17.61;100.00;99327.47;6238742;28;96515;-63
2023/09/28 04:52:44;;;;;;;;;37.40;29.20;;;;;17.65;100.00;99323.97;6237933;28;97153;-63
2023/09/28 04:55:47;;;;;;;;;35.25;29.00;;;;;17.69;100.00;99324.31;6238945;28;96251;-62
2023/09/28 04:58:52;;;;;;;;;36.00;32.00;;;;;17.73;100.00;99329.00;6217505;28;96683;-64
2023/09/28 05:01:57;;;;;;;;;33.00;29.00;;;;;17.78;100.00;99324.66;6237567;28;97062;-63
2023/09/28 05:05:00;;;;;;;;;32.00;28.40;;;;;17.81;100.00;99326.84;6238428;28;96386;-63
2023/09/28 05:08:04;;;;;;;;;30.80;27.00;;;;;17.83;100.00;99328.25;6234958;28;96773;-63
2023/09/28 05:11:07;;;;;;;;;26.67;25.00;;;;;17.87;100.00;99328.56;6235863;27;96524;-63
2023/09/28 05:14:12;;;;;;;;;29.40;27.40;;;;;17.95;100.00;99331.63;6237857;27;96580;-64
2023/09/28 05:17:15;;;;;;;;;31.00;29.00;;;;;17.94;100.00;99334.63;6201187;28;98488;-64
2023/09/28 05:20:19;;;;;;;;;27.40;26.00;;;;;18.05;100.00;99331.72;6217152;28;96701;-63
2023/09/28 05:23:22;;;;;;;;;29.00;26.40;;;;;18.21;100.00;99335.41;6237756;28;96881;-63
2023/09/28 05:26:25;;;;;;;;;31.80;29.40;;;;;18.37;100.00;99333.66;6236995;28;96805;-63
2023/09/28 05:29:30;;;;;;;;;30.20;25.60;;;;;18.49;100.00;99339.72;6238033;28;96525;-64
2023/09/28 05:32:33;;;;;;;;;28.40;25.80;;;;;18.64;100.00;99339.03;6237923;28;96338;-64
2023/09/28 05:35:38;;;;;;;;;28.00;27.00;;;;;18.68;100.00;99338.25;6236609;28;96518;-64
2023/09/28 05:38:41;;;;;;;;;30.40;29.00;;;;;18.90;100.00;99344.41;6236625;28;96550;-64
2023/09/28 05:41:45;;;;;;;;;30.60;28.00;;;;;19.14;100.00;99346.72;6236352;28;97528;-64
2023/09/28 05:44:49;;;;;;;;;28.00;26.00;;;;;19.33;100.00;99353.34;6236560;28;96439;-64
2023/09/28 05:47:52;;;;;;;;;25.80;24.40;;;;;19.50;100.00;99356.72;6237857;28;96355;-63
2023/09/28 05:50:56;;;;;;;;;26.40;23.40;;;;;19.68;100.00;99358.97;6236014;27;96313;-63
2023/09/28 05:53:59;;;;;;;;;25.60;23.60;;;;;19.86;100.00;99358.47;6234064;27;96970;-64
2023/09/28 05:57:03;;;;;;;;;25.50;23.25;;;;;20.05;100.00;99350.56;6235300;28;96656;-64
2023/09/28 06:00:09;;;;;;;;;26.60;24.60;;;;;20.19;100.00;99359.88;6217227;28;98521;-63
2023/09/28 06:03:13;;;;;;;;;29.67;26.33;;;;;20.36;100.00;99362.38;6236004;28;98217;-64
2023/09/28 06:06:18;;;;;;;;;29.00;25.00;;;;;20.59;100.00;99364.56;6218891;28;96684;-64
2023/09/28 06:09:21;;;;;;;;;27.00;24.00;;;;;20.66;100.00;99351.41;6238118;28;96829;-64
2023/09/28 06:12:24;;;;;;;;;29.00;25.00;;;;;;;;6237611;28;96428;-63
2023/09/28 06:15:29;;;;;;;;;26.00;24.00;;;;;21.22;100.00;99369.66;6219985;28;96476;-63
2023/09/28 06:18:32;;;;;;;;;27.40;23.60;;;;;21.46;100.00;99362.44;6237920;28;96400;-63
2023/09/28 06:21:38;;;;;;;;;26.00;24.40;;;;;21.74;100.00;99366.44;6237583;28;96572;-63
2023/09/28 06:24:41;;;;;;;;;28.40;26.40;;;;;22.06;100.00;99368.72;6237729;28;96672;-64
2023/09/28 06:27:45;;;;;;;;;29.00;26.00;;;;;22.39;100.00;99376.97;6237636;28;96717;-63
2023/09/28 06:30:49;;;;;;;;;25.60;22.60;;;;;22.81;100.00;99381.06;6237844;28;96282;-63
2023/09/28 06:33:53;;;;;;;;;26.00;23.00;;;;;23.29;100.00;99377.22;6218872;28;96506;-64
2023/09/28 06:36:56;;;;;;;;;27.00;23.00;;;;;23.69;100.00;99377.88;6237657;28;96689;-63
2023/09/28 06:40:01;;;;;;;;;26.25;25.25;;;;;24.13;100.00;99372.84;6237545;28;96373;-64
2023/09/28 06:43:04;;;;;;;;;24.75;21.25;;;;;24.46;100.00;99364.63;6237355;28;97644;-63
2023/09/28 06:46:09;;;;;;;;;26.00;23.00;;;;;24.94;100.00;99381.72;6218992;28;96358;-63
2023/09/28 06:49:12;;;;;;;;;26.00;23.20;;;;;25.51;100.00;99387.81;6218855;28;97065;-64
2023/09/28 06:52:16;;;;;;;;;24.40;22.00;;;;;26.09;100.00;99388.75;6201328;28;96685;-64
2023/09/28 06:55:19;;;;;;;;;27.60;25.00;;;;;26.71;100.00;99395.28;6218433;28;97107;-64
2023/09/28 06:58:23;;;;;;;;;22.60;21.60;;;;;27.36;100.00;99393.84;6237005;28;96910;-64
2023/09/28 07:01:27;;;;;;;;;24.50;22.00;;;;;27.78;100.00;99386.84;6218264;28;96929;-64
2023/09/28 07:04:31;;;;;;;;;23.50;21.00;;;;;28.18;100.00;99390.34;6204072;28;96735;-64
2023/09/28 07:07:35;;;;;;;;;21.80;19.80;;;;;28.52;100.00;99393.09;6205841;28;98565;-64
2023/09/28 07:10:39;;;;;;;;;22.40;20.00;;;;;28.69;100.00;99383.94;6241780;28;96401;-64
2023/09/28 07:13:42;;;;;;;;;19.00;17.40;;;;;29.05;100.00;99383.56;6241324;28;96382;-64
2023/09/28 07:16:47;;;;;;;;;19.60;17.60;;;;;29.40;100.00;99387.88;6241073;28;96492;-64
2023/09/28 07:19:50;;;;;;;;;20.40;17.40;;;;;29.88;100.00;99392.16;6256870;27;96358;-65
2023/09/28 07:22:53;;;;;;;;;19.40;18.40;;;;;30.25;100.00;99376.56;6256424;27;97735;-64
2023/09/28 07:25:56;;;;;;;;;20.00;19.00;;;;;30.72;100.00;99380.72;6241329;28;96373;-63
2023/09/28 07:29:00;;;;;;;;;17.20;15.20;;;;;31.34;100.00;99391.66;6241043;28;96391;-64
2023/09/28 07:32:06;;;;;;;;;20.00;18.00;;;;;32.03;100.00;99375.97;6239042;28;97360;-64
2023/09/28 07:35:10;;;;;;;;;18.20;17.20;;;;;32.69;100.00;99375.56;6222958;28;96289;-64
2023/09/28 07:38:13;;;;;;;;;16.75;14.75;;;;;33.23;100.00;99375.84;6222985;28;96474;-64
2023/09/28 07:41:17;;;;;;;;;17.40;17.00;;;;;33.72;100.00;99376.28;6222953;28;97039;-64
2023/09/28 07:44:20;;;;;;;;;16.00;15.60;;;;;34.14;100.00;99380.06;6241501;28;96804;-63
2023/09/28 07:47:24;;;;;;;;;16.67;16.00;;;;;34.60;96.32;99374.66;6240990;28;96416;-63
2023/09/28 07:50:28;;;;;;;;;15.00;13.40;;;;;34.99;94.84;99372.63;6241485;28;96296;-64
2023/09/28 07:53:32;;;;;;;;;21.20;19.00;;;;;35.35;95.02;99368.47;6205265;28;98568;-63
2023/09/28 07:56:35;;;;;;;;;22.75;21.75;;;;;35.74;97.47;99369.09;6240523;28;96389;-63
2023/09/28 07:59:38;;;;;;;;;21.00;19.40;;;;;36.06;93.37;99378.81;6256311;27;96262;-64
2023/09/28 08:02:43;;;;;;;;;24.00;21.00;;;;;36.56;94.91;99363.41;6206024;28;98652;-64
2023/09/28 08:05:46;;;;;;;;;22.00;20.00;;;;;36.87;88.57;99365.00;6240716;28;96947;-64
2023/09/28 08:08:49;;;;;;;;;24.00;20.00;;;;;37.09;86.60;99369.69;6221334;28;98484;-63
2023/09/28 08:11:53;;;;;;;;;27.00;22.50;;;;;37.36;85.01;99359.06;6240356;28;96370;-64
2023/09/28 08:15:03;;;;;;;;;23.25;22.25;;;;;37.59;82.66;99356.84;6221815;27;96498;-65
2023/09/28 08:18:08;;;;;;;;;22.80;21.00;;;;;37.31;78.79;99359.44;6240251;28;96500;-65
2023/09/28 08:21:12;;;;;;;;;22.75;20.75;;;;;37.09;80.73;99357.63;6240636;28;96305;-64
2023/09/28 08:24:15;;;;;;;;;26.00;22.60;;;;;37.28;82.32;99357.41;6255571;27;97084;-64
2023/09/28 08:27:20;;;;;;;;;28.20;24.00;;;;;37.77;80.47;99350.56;6239946;28;96698;-65
2023/09/28 08:30:23;;;;;;;;;23.00;22.00;;;;;38.20;78.45;99349.63;6239557;28;97346;-64
2023/09/28 08:33:29;;;;;;;;;22.75;21.75;;;;;38.56;75.79;99353.41;6220932;28;97341;-65
2023/09/28 08:36:33;;;;;;;;;20.40;19.00;;;;;38.98;73.97;99347.91;6240294;28;96348;-65
2023/09/28 08:39:37;;;;;;;;;25.00;20.00;;;;;39.12;70.31;99352.75;6240489;28;97105;-65
2023/09/28 08:42:43;;;;;;;;;21.00;19.00;;;;;39.24;69.57;99351.53;6221633;28;96321;-64
2023/09/28 08:45:53;;;;;;;;;22.80;21.40;;;;;39.35;70.30;99341.88;6240070;28;96360;-65
2023/09/28 08:49:00;;;;;;;;;19.60;18.00;;;;;39.44;70.13;99349.16;6239840;28;96994;-64
2023/09/28 08:52:04;;;;;;;;;21.00;20.00;;;;;39.19;71.25;99354.78;6240274;28;96273;-64
2023/09/28 08:55:09;;;;;;;;;19.80;18.00;;;;;38.82;72.55;99366.34;6239806;28;96314;-65
2023/09/28 08:58:14;;;;;;;;;18.60;18.00;;;;;38.39;71.38;99351.31;6239878;28;96362;-64
2023/09/28 09:01:18;;;;;;;;;17.00;15.80;;;;;38.39;73.65;99356.94;6221561;28;98386;-64
2023/09/28 09:04:23;;;;;;;;;15.50;15.00;;;;;38.67;72.13;99353.44;6239408;28;96376;-64
2023/09/28 09:07:28;;;;;;;;;18.00;17.20;;;;;39.10;72.67;99348.72;6240123;28;96986;-64
2023/09/28 09:10:31;;;;;;;;;16.60;15.00;;;;;39.21;69.67;99355.16;6239634;28;96176;-64
2023/09/28 09:13:34;;;;;;;;;15.00;14.00;;;;;39.31;71.45;99349.53;6239542;28;97567;-65
2023/09/28 09:16:38;;;;;;;;;17.40;15.80;;;;;39.53;69.15;99350.34;6221042;28;97235;-65
2023/09/28 09:19:43;;;;;;;;;19.00;17.00;;;;;39.50;69.02;99356.78;6238844;28;96329;-64
2023/09/28 09:22:47;;;;;;;;;15.40;15.00;;;;;39.74;68.67;99350.31;6220230;28;96923;-64
2023/09/28 09:26:03;;;;;;;;;17.00;16.80;;;;;40.12;68.80;99348.66;6238393;27;96257;-64
2023/09/28 09:29:07;;;;;;;;;17.00;16.00;;;;;40.39;65.64;99348.97;6220612;28;96357;-65
2023/09/28 09:32:10;;;;;;;;;17.00;16.60;;;;;40.61;61.76;99344.81;6235611;28;96758;-64
2023/09/28 09:35:17;;;;;;;;;15.00;14.75;;;;;41.03;62.40;99334.50;6237986;28;96351;-65
2023/09/28 09:38:23;;;;;;;;;16.00;14.60;;;;;41.21;62.13;99325.84;6238581;28;96014;-65
2023/09/28 09:41:28;;;;;;;;;16.80;15.00;;;;;41.51;60.38;99337.34;6238596;28;96326;-65
2023/09/28 09:44:32;;;;;;;;;17.60;16.00;;;;;41.61;62.91;99336.44;6220212;28;96869;-65
2023/09/28 09:47:36;;;;;;;;;16.00;15.00;;;;;41.78;57.17;99329.81;6220276;28;96288;-64
2023/09/28 09:50:42;;;;;;;;;12.00;11.40;;;;;41.64;55.14;99320.66;6238261;28;96925;-64
2023/09/28 09:53:47;;;;;;;;;12.80;12.00;;;;;41.74;55.61;99329.00;6238399;27;96370;-64
2023/09/28 09:56:51;;;;;;;;;14.00;13.00;;;;;41.69;53.62;99335.13;6230006;28;96405;-65
2023/09/28 09:59:57;;;;;;;;;13.00;13.00;;;;;41.53;54.15;99331.28;6220082;28;97268;-65
2023/09/28 10:03:04;;;;;;;;;14.50;13.50;;;;;41.60;57.35;99336.84;6219997;28;96665;-64
2023/09/28 10:06:09;;;;;;;;;13.00;13.00;;;;;41.76;56.04;99328.59;6237909;28;96455;-64
2023/09/28 10:09:13;;;;;;;;;15.00;13.80;;;;;41.68;55.13;99325.06;6245376;27;96589;-65
2023/09/28 10:12:18;;;;;;;;;12.00;11.00;;;;;41.49;57.02;99323.59;6219239;28;97318;-64
2023/09/28 10:15:23;;;;;;;;;12.00;11.00;;;;;41.37;59.98;99326.13;6219397;28;97113;-65
2023/09/28 10:18:28;;;;;;;;;14.00;13.00;;;;;41.38;61.23;99313.59;6220016;28;96300;-65
2023/09/28 10:21:36;;;;;;;;;11.60;11.60;;;;;41.43;59.22;99315.97;6221073;28;96311;-64
2023/09/28 10:24:39;;;;;;;;;14.00;13.00;;;;;41.42;61.76;99314.34;6237181;28;96515;-63
2023/09/28 10:27:44;;;;;;;;;13.00;13.00;;;;;41.21;62.49;99312.50;6238707;28;96431;-64
2023/09/28 10:30:47;;;;;;;;;10.00;10.00;;;;;41.24;63.05;99310.88;6235814;28;96219;-64
2023/09/28 10:34:01;;;;;;;;;13.00;12.00;;;;;41.45;60.01;99311.50;6239497;27;96488;-64
2023/09/28 10:37:21;;;;;;;;;17.00;15.60;;;;;41.50;61.10;99315.91;6238737;28;96310;-63
2023/09/28 10:40:26;;;;;;;;;10.40;10.00;;;;;41.63;61.34;99313.38;6238359;28;96310;-64
2023/09/28 10:43:51;;;;;;;;;11.50;9.50;;;;;41.42;63.54;99306.66;6235327;28;96641;-63
2023/09/28 10:46:54;;;;;;;;;15.00;14.25;;;;;41.51;62.36;99315.50;6238685;28;96359;-63
2023/09/28 10:50:01;;;;;;;;;12.00;10.60;;;;;41.56;60.08;99302.13;6253958;27;96815;-63
2023/09/28 10:53:05;;;;;;;;;12.00;11.00;;;;;41.53;57.21;99311.47;6220749;28;96687;-63
2023/09/28 10:56:10;;;;;;;;;11.00;9.60;;;;;41.23;51.94;99300.78;6220976;28;96489;-63
2023/09/28 10:59:14;;;;;;;;;11.00;11.00;;;;;40.99;56.21;99300.56;6220479;28;96322;-64
2023/09/28 11:02:19;;;;;;;;;9.80;9.00;;;;;40.48;48.62;99306.13;6238021;28;96930;-63
2023/09/28 11:05:22;;;;;;;;;11.75;11.75;;;;;40.22;49.32;99301.81;6220391;28;96217;-63
2023/09/28 11:08:28;;;;;;;;;11.00;10.00;;;;;40.21;47.62;99300.22;6238070;28;96461;-63
2023/09/28 11:11:31;;;;;;;;;11.00;10.20;;;;;40.09;45.93;99294.97;6237496;28;96572;-63
2023/09/28 11:14:36;;;;;;;;;10.00;9.00;;;;;40.00;46.71;99288.97;6202495;28;98415;-63
2023/09/28 11:17:40;;;;;;;;;9.00;8.50;;;;;39.77;45.16;99293.09;6220170;28;96402;-63
2023/09/28 11:20:43;;;;;;;;;10.00;10.00;;;;;39.31;43.50;99281.81;6218772;28;97441;-64
2023/09/28 11:23:50;;;;;;;;;10.20;9.20;;;;;38.94;44.44;99278.63;6237580;28;96310;-64
2023/09/28 11:26:53;;;;;;;;;11.50;10.50;;;;;38.60;45.71;99282.97;6237758;28;96458;-64
2023/09/28 11:29:57;;;;;;;;;8.00;8.00;;;;;38.00;46.49;99277.94;6237156;28;96354;-65
2023/09/28 11:33:04;;;;;;;;;10.00;9.20;;;;;37.94;48.52;99271.84;6237157;28;96408;-65
2023/09/28 11:36:07;;;;;;;;;10.40;9.00;;;;;37.81;47.56;99272.59;6219493;28;96311;-65
2023/09/28 11:39:13;;;;;;;;;10.00;9.25;;;;;37.67;50.21;99271.31;6237213;28;96313;-65
2023/09/28 11:42:18;;;;;;;;;9.00;9.00;;;;;38.21;48.42;99260.31;6238353;28;96892;-65
2023/09/28 11:45:27;;;;;;;;;7.80;7.20;;;;;38.03;42.39;99257.41;6237370;28;96430;-64
2023/09/28 11:48:31;;;;;;;;;11.00;9.00;;;;;37.92;45.56;99257.38;6237706;28;96345;-65
2023/09/28 11:51:35;;;;;;;;;9.00;8.80;;;;;37.94;48.52;99252.13;6240821;27;96857;-65
2023/09/28 11:54:40;;;;;;;;;8.40;8.00;;;;;38.15;45.28;99255.06;6222961;28;96636;-64
2023/09/28 11:57:44;;;;;;;;;9.00;9.00;;;;;38.53;50.17;99247.13;6241730;28;96329;-64
2023/09/28 12:00:49;;;;;;;;;7.00;7.00;;;;;38.98;47.82;99251.22;6239929;28;96931;-65
2023/09/28 12:03:52;;;;;;;;;6.25;6.25;;;;;38.39;45.51;99250.69;6223292;28;96443;-65
2023/09/28 12:06:56;;;;;;;;;8.00;8.00;;;;;38.24;45.56;99220.88;6206284;28;96713;-65
2023/09/28 12:10:01;;;;;;;;;11.00;9.50;;;;;38.14;48.86;99247.00;6241185;28;96380;-64
2023/09/28 12:13:07;;;;;;;;;12.00;10.00;;;;;38.24;50.11;99243.41;6223415;28;96875;-65
2023/09/28 12:16:10;;;;;;;;;9.00;9.00;;;;;38.58;50.28;99241.91;6222805;28;96264;-65
2023/09/28 12:19:14;;;;;;;;;9.40;8.00;;;;;38.52;49.42;99245.50;6222465;28;96721;-65
2023/09/28 12:22:18;;;;;;;;;10.00;10.00;;;;;38.64;48.74;99242.31;6240531;28;96463;-65
2023/09/28 12:25:24;;;;;;;;;9.75;9.00;;;;;38.89;49.41;99231.09;6222297;28;96862;-65
2023/09/28 12:28:27;;;;;;;;;10.20;9.00;;;;;38.81;48.50;99238.69;6221943;28;98943;-65
2023/09/28 12:31:30;;;;;;;;;10.00;10.00;;;;;38.64;47.75;99238.69;6222956;28;96406;-65
2023/09/28 12:34:34;;;;;;;;;11.40;10.40;;;;;38.60;51.94;99235.88;6240585;28;96277;-65
2023/09/28 12:37:38;;;;;;;;;9.00;9.00;;;;;38.53;45.76;99235.88;6240606;28;96569;-65
2023/09/28 12:40:43;;;;;;;;;9.20;9.00;;;;;38.54;49.39;99227.03;6221749;28;96791;-64
2023/09/28 12:43:46;;;;;;;;;8.20;7.80;;;;;38.28;52.05;99230.16;6239872;28;96931;-64
2023/09/28 12:46:50;;;;;;;;;9.40;9.40;;;;;38.10;55.30;99232.13;6221536;28;98618;-64
2023/09/28 12:49:53;;;;;;;;;10.00;10.00;;;;;38.05;55.08;99216.41;6236215;28;96804;-64
2023/09/28 12:52:57;;;;;;;;;10.00;9.60;;;;;38.21;54.92;99234.97;6227914;28;96926;-65
2023/09/28 12:56:01;;;;;;;;;11.80;10.80;;;;;38.15;54.33;99234.53;6225843;28;96432;-64
2023/09/28 12:59:05;;;;;;;;;9.00;7.25;;;;;38.02;56.17;99230.50;6239421;28;98795;-64
2023/09/28 13:02:09;;;;;;;;;11.00;9.40;;;;;37.72;57.86;99233.56;6239689;27;96502;-64
2023/09/28 13:05:14;;;;;;;;;9.75;8.75;;;;;37.37;56.63;99231.31;6238115;28;96267;-64
2023/09/28 13:08:18;;;;;;;;;8.00;8.00;;;;;37.14;61.63;99225.91;6238440;28;97747;-63
2023/09/28 13:11:23;;;;;;;;;9.40;9.00;;;;;37.02;58.48;99220.59;6254308;27;96347;-65
2023/09/28 13:14:26;;;;;;;;;9.20;9.00;;;;;36.89;58.57;99219.31;6220767;28;96459;-64
2023/09/28 13:17:32;;;;;;;;;10.00;9.00;;;;;37.01;61.91;99213.34;6220054;28;98446;-64
2023/09/28 13:20:38;;;;;;;;;10.50;9.00;;;;;37.12;62.39;99219.09;6239653;28;96270;-64
2023/09/28 13:23:42;;;;;;;;;9.00;9.00;;;;;37.21;61.33;99223.19;6238074;27;97664;-64
2023/09/28 13:26:47;;;;;;;;;8.60;8.60;;;;;37.10;55.76;99211.03;6219690;28;98580;-64
2023/09/28 13:29:51;;;;;;;;;10.20;9.60;;;;;36.81;58.28;99210.00;6221117;28;96673;-64
2023/09/28 13:32:54;;;;;;;;;10.50;10.50;;;;;36.67;56.95;99214.69;6219373;28;97472;-64
2023/09/28 13:35:58;;;;;;;;;8.00;8.00;;;;;36.43;58.60;99210.41;6237442;28;96835;-65
2023/09/28 13:39:04;;;;;;;;;9.00;8.80;;;;;36.35;59.55;99214.38;6226796;28;96382;-64
2023/09/28 13:42:10;;;;;;;;;11.60;9.40;;;;;36.32;60.66;99215.91;6236260;28;96261;-64
2023/09/28 13:45:13;;;;;;;;;10.00;9.00;;;;;36.37;60.48;99212.75;6237087;28;96392;-65
2023/09/28 13:48:17;;;;;;;;;10.80;9.40;;;;;36.39;59.62;99209.59;6238015;28;97517;-64
2023/09/28 13:51:20;;;;;;;;;10.20;9.00;;;;;36.41;63.26;99213.59;6237678;28;96519;-64
2023/09/28 13:54:23;;;;;;;;;11.00;10.00;;;;;36.37;62.21;99203.53;6235142;28;96450;-63
2023/09/28 13:57:28;;;;;;;;;8.40;8.00;;;;;36.34;58.63;99213.56;6211965;28;96405;-63
2023/09/28 14:00:37;;;;;;;;;8.25;8.25;;;;;36.25;58.39;99207.44;6237399;28;96341;-64
2023/09/28 14:03:40;;;;;;;;;11.00;9.40;;;;;36.23;62.00;99200.59;6218376;28;98663;-63